Time;durP1;ratioP1;P1;durP2;ratioP2;P2;SDS_P1;SDS_P2;PMS_P1;PMS_P2;Temp;Humidity;BMP_temperature;BMP_pressure;BME280_temperature;BME280_humidity;BME280_pressure;Samples;Min_cycle;Max_cycle;Signal;HPM_P1;HPM_P2
2022/06/26 00:01:00;;;;;;;3.00;1.70;;;18.20;98.00;;;;;;5014196;28;20977;-70
2022/06/26 00:03:27;;;;;;;3.10;1.70;;;18.10;98.00;;;;;;5013680;28;20487;-70
2022/06/26 00:05:54;;;;;;;3.77;2.10;;;18.20;98.00;;;;;;5013982;28;20990;-69
2022/06/26 00:08:22;;;;;;;3.00;2.13;;;18.20;98.00;;;;;;5013567;28;20483;-69
2022/06/26 00:10:49;;;;;;;3.17;2.27;;;18.10;98.00;;;;;;5013928;28;20554;-69
2022/06/26 00:13:17;;;;;;;2.87;2.10;;;18.00;98.00;;;;;;5013802;28;20470;-69
2022/06/26 00:15:44;;;;;;;4.20;2.23;;;18.10;98.00;;;;;;5013689;28;20452;-69
2022/06/26 00:18:13;;;;;;;5.77;3.50;;;18.10;98.00;;;;;;5013525;28;20496;-69
2022/06/26 00:20:40;;;;;;;3.27;2.57;;;18.10;98.00;;;;;;5013529;28;20452;-69
2022/06/26 00:23:08;;;;;;;3.07;1.80;;;18.10;98.00;;;;;;5012838;28;20484;-69
2022/06/26 00:25:35;;;;;;;2.50;1.90;;;18.10;98.00;;;;;;5012978;28;20454;-69
2022/06/26 00:28:02;;;;;;;2.27;1.90;;;18.00;98.00;;;;;;5012827;28;20452;-69
2022/06/26 00:30:29;;;;;;;2.50;2.10;;;18.10;98.00;;;;;;5012989;28;20483;-69
2022/06/26 00:32:56;;;;;;;2.77;1.90;;;18.20;98.00;;;;;;5012151;28;20455;-69
2022/06/26 00:35:25;;;;;;;3.53;1.97;;;18.30;98.00;;;;;;5012835;28;20547;-69
2022/06/26 00:37:52;;;;;;;2.43;1.73;;;18.50;98.00;;;;;;5012766;28;20486;-69
2022/06/26 00:40:20;;;;;;;2.30;1.60;;;18.60;98.00;;;;;;5012765;28;20451;-69
2022/06/26 00:42:47;;;;;;;1.77;1.40;;;18.60;98.00;;;;;;5011891;28;20480;-69
2022/06/26 00:45:14;;;;;;;2.83;1.70;;;18.50;98.00;;;;;;5013315;28;21076;-69
2022/06/26 00:47:41;;;;;;;2.20;1.63;;;18.30;98.00;;;;;;5013123;28;20452;-69
2022/06/26 00:50:10;;;;;;;4.17;1.83;;;18.30;98.00;;;;;;5013302;28;20935;-69
2022/06/26 00:52:40;;;;;;;2.13;2.00;;;18.30;98.00;;;;;;5013400;28;20835;-69
2022/06/26 00:55:10;;;;;;;3.10;1.63;;;18.20;98.00;;;;;;5013303;28;20444;-69
2022/06/26 00:57:38;;;;;;;2.10;1.70;;;18.10;98.00;;;;;;5013421;28;20460;-69
2022/06/26 01:00:07;;;;;;;2.40;1.93;;;18.00;98.00;;;;;;5012136;28;20478;-70
2022/06/26 01:02:34;;;;;;;5.87;2.40;;;17.90;98.00;;;;;;5012483;28;20575;-69
2022/06/26 01:05:02;;;;;;;2.70;1.90;;;18.00;98.00;;;;;;5012966;28;20491;-69
2022/06/26 01:07:29;;;;;;;2.53;1.83;;;17.80;98.00;;;;;;5012620;28;20954;-69
2022/06/26 01:09:58;;;;;;;2.13;1.83;;;17.90;98.00;;;;;;5012972;28;20503;-69
2022/06/26 01:12:25;;;;;;;3.63;1.90;;;17.90;98.00;;;;;;5012551;28;20482;-69
2022/06/26 01:14:53;;;;;;;2.27;1.73;;;17.80;98.00;;;;;;5012712;28;20475;-69
2022/06/26 01:17:20;;;;;;;2.90;2.00;;;18.00;98.00;;;;;;5012543;28;20463;-69
2022/06/26 01:19:48;;;;;;;1.93;1.60;;;18.00;98.00;;;;;;5011587;28;20833;-69
2022/06/26 01:22:15;;;;;;;2.33;1.83;;;17.80;98.00;;;;;;5012629;28;20882;-69
2022/06/26 01:24:43;;;;;;;3.43;2.30;;;17.80;98.00;;;;;;5012662;28;20570;-70
2022/06/26 01:27:11;;;;;;;3.77;2.20;;;17.80;98.00;;;;;;5012092;28;20463;-69
2022/06/26 01:29:38;;;;;;;2.40;1.90;;;17.80;98.00;;;;;;5012560;28;20471;-69
2022/06/26 01:32:08;;;;;;;2.60;1.63;;;17.80;98.00;;;;;;5012421;28;20964;-70
2022/06/26 01:34:35;;;;;;;2.20;1.80;;;17.80;98.00;;;;;;5012518;28;20455;-69
2022/06/26 01:37:05;;;;;;;2.53;1.90;;;17.90;98.00;;;;;;5012535;28;20471;-69
2022/06/26 01:39:32;;;;;;;1.93;1.80;;;18.00;98.00;;;;;;5012433;28;20460;-69
2022/06/26 01:42:00;;;;;;;1.80;1.63;;;18.10;98.00;;;;;;5012286;28;20452;-69
2022/06/26 01:44:27;;;;;;;2.57;1.87;;;18.00;98.00;;;;;;5011705;28;21045;-69
2022/06/26 01:46:54;;;;;;;2.47;1.50;;;18.00;98.00;;;;;;5012232;28;20454;-70
2022/06/26 01:49:25;;;;;;;3.17;2.10;;;18.10;98.00;;;;;;5012347;28;21110;-69
2022/06/26 01:51:54;;;;;;;4.67;2.10;;;18.10;98.00;;;;;;5011535;28;20463;-69
2022/06/26 01:54:22;;;;;;;2.40;1.70;;;18.10;98.00;;;;;;5012448;28;20483;-69
2022/06/26 01:56:49;;;;;;;1.80;1.53;;;18.10;98.00;;;;;;5012187;28;20782;-69
2022/06/26 01:59:17;;;;;;;1.90;1.70;;;18.20;98.00;;;;;;5012488;28;20555;-69
2022/06/26 02:01:44;;;;;;;3.40;1.60;;;18.30;98.00;;;;;;5012167;28;20824;-69
2022/06/26 02:04:16;;;;;;;1.87;1.57;;;18.30;98.00;;;;;;5011972;28;20491;-69
2022/06/26 02:06:44;;;;;;;1.83;1.60;;;18.30;98.00;;;;;;5012235;28;20889;-69
2022/06/26 02:13:36;;;;;;;2.80;2.23;;;18.30;98.00;;;;;;5011929;28;20459;-69
2022/06/26 02:14:44;;;;;;;2.20;1.77;;;18.40;98.00;;;;;;5011769;28;20462;-69
2022/06/26 02:17:38;;;;;;;4.40;1.93;;;18.40;98.00;;;;;;5011657;28;20455;-69
2022/06/26 02:20:07;;;;;;;1.60;1.50;;;18.40;98.00;;;;;;5011701;28;20451;-69
2022/06/26 02:22:37;;;;;;;2.33;1.70;;;18.40;98.00;;;;;;5011804;28;20455;-69
2022/06/26 02:25:08;;;;;;;2.10;1.77;;;18.50;98.00;;;;;;5011899;28;20451;-70
2022/06/26 02:27:35;;;;;;;1.80;1.70;;;18.50;98.00;;;;;;5011936;28;20970;-69
2022/06/26 02:30:04;;;;;;;1.93;1.57;;;18.60;98.00;;;;;;5011814;28;20502;-69
2022/06/26 02:32:31;;;;;;;1.83;1.60;;;18.50;98.00;;;;;;5011985;28;20459;-70
2022/06/26 02:34:59;;;;;;;3.37;2.00;;;18.60;98.00;;;;;;5012004;28;20462;-69
2022/06/26 02:37:26;;;;;;;2.80;2.27;;;18.70;98.00;;;;;;5011682;28;20459;-69
2022/06/26 02:39:54;;;;;;;2.63;1.90;;;18.50;98.00;;;;;;5011702;28;20471;-69
2022/06/26 02:42:21;;;;;;;2.50;1.80;;;18.50;98.00;;;;;;5010632;28;20525;-69
2022/06/26 02:44:48;;;;;;;2.53;1.60;;;18.40;98.00;;;;;;5011877;28;20454;-69
2022/06/26 02:47:17;;;;;;;3.73;1.80;;;18.40;98.00;;;;;;5011881;28;20466;-69
2022/06/26 02:49:44;;;;;;;2.83;1.63;;;18.50;98.00;;;;;;5011995;28;20502;-68
2022/06/26 02:52:11;;;;;;;3.57;1.93;;;18.40;98.00;;;;;;5011800;28;20448;-69
2022/06/26 02:54:38;;;;;;;1.67;1.60;;;18.30;98.00;;;;;;5011654;28;20546;-69
2022/06/26 02:57:06;;;;;;;2.00;1.67;;;18.30;98.00;;;;;;5015606;28;20772;-69
2022/06/26 02:59:33;;;;;;;2.30;1.50;;;18.20;98.00;;;;;;5015419;28;20460;-69
2022/06/26 03:02:01;;;;;;;2.07;1.73;;;18.50;98.00;;;;;;5015181;28;20845;-69
2022/06/26 03:04:30;;;;;;;2.33;1.70;;;18.50;98.00;;;;;;5015054;28;20883;-69
2022/06/26 03:06:57;;;;;;;1.60;1.40;;;18.70;98.00;;;;;;5015087;28;20534;-69
2022/06/26 03:09:24;;;;;;;2.23;1.63;;;18.90;98.00;;;;;;5015029;28;20467;-69
2022/06/26 03:11:51;;;;;;;1.60;1.43;;;18.90;98.00;;;;;;5014986;28;20463;-69
2022/06/26 03:14:18;;;;;;;2.23;1.80;;;18.70;98.00;;;;;;5014868;28;20455;-69
2022/06/26 03:16:46;;;;;;;2.50;1.70;;;18.60;98.00;;;;;;5014870;28;20456;-69
2022/06/26 03:19:14;;;;;;;2.07;1.63;;;18.60;98.00;;;;;;5014793;28;20455;-69
2022/06/26 03:21:42;;;;;;;2.00;1.70;;;18.60;98.00;;;;;;5014442;28;20456;-69
2022/06/26 03:24:09;;;;;;;1.50;1.40;;;18.50;98.00;;;;;;5014609;28;20479;-69
2022/06/26 03:26:38;;;;;;;2.47;1.80;;;18.50;98.00;;;;;;5014752;28;20467;-69
2022/06/26 03:29:11;;;;;;;1.67;1.50;;;18.40;98.00;;;;;;5014563;28;20466;-69
2022/06/26 03:31:40;;;;;;;7.43;2.00;;;18.30;98.00;;;;;;5014663;28;20981;-69
2022/06/26 03:34:07;;;;;;;2.17;1.57;;;18.40;98.00;;;;;;5014638;28;20510;-69
2022/06/26 03:36:35;;;;;;;2.50;1.60;;;18.50;98.00;;;;;;5014532;28;20470;-69
2022/06/26 03:39:05;;;;;;;2.80;1.60;;;18.50;98.00;;;;;;5013279;28;20452;-69
2022/06/26 03:41:32;;;;;;;1.53;1.50;;;18.40;98.00;;;;;;5014566;28;20452;-69
2022/06/26 03:43:59;;;;;;;2.60;1.70;;;18.70;98.00;;;;;;5014420;28;20553;-69
2022/06/26 03:46:27;;;;;;;3.37;1.80;;;18.80;98.00;;;;;;5014569;28;21016;-69
2022/06/26 03:48:54;;;;;;;2.00;1.60;;;18.80;98.00;;;;;;5013301;28;20804;-69
2022/06/26 03:51:21;;;;;;;2.83;1.90;;;18.60;98.00;;;;;;5014448;28;20525;-69
2022/06/26 03:53:48;;;;;;;1.90;1.67;;;18.60;98.00;;;;;;5014441;28;20538;-69
2022/06/26 03:56:17;;;;;;;1.80;1.60;;;18.60;98.00;;;;;;5014530;28;20456;-69
2022/06/26 03:58:45;;;;;;;2.27;1.70;;;18.70;98.00;;;;;;5014247;28;20447;-69
2022/06/26 04:01:13;;;;;;;2.30;1.50;;;18.90;98.00;;;;;;5013971;28;20462;-69
2022/06/26 04:03:40;;;;;;;2.23;1.90;;;19.00;98.00;;;;;;5013802;28;20567;-70
2022/06/26 04:06:07;;;;;;;1.93;1.40;;;18.80;98.00;;;;;;5013770;28;20541;-70
2022/06/26 04:08:34;;;;;;;1.30;1.30;;;18.80;98.00;;;;;;5013188;28;20455;-70
2022/06/26 04:11:01;;;;;;;1.87;1.63;;;18.80;98.00;;;;;;5014010;28;20456;-69
2022/06/26 04:13:30;;;;;;;2.43;1.80;;;18.80;98.00;;;;;;5012468;28;20460;-70
2022/06/26 04:15:58;;;;;;;2.43;1.63;;;18.80;98.00;;;;;;5013757;28;20515;-70
2022/06/26 04:18:25;;;;;;;1.93;1.57;;;18.80;98.00;;;;;;5013601;28;20546;-69
2022/06/26 04:20:53;;;;;;;2.43;1.80;;;18.80;98.00;;;;;;5013626;28;20459;-69
2022/06/26 04:23:20;;;;;;;4.13;2.40;;;18.90;98.00;;;;;;5013568;28;20479;-69
2022/06/26 04:25:47;;;;;;;2.00;1.80;;;18.80;98.00;;;;;;5013680;28;20448;-69
2022/06/26 04:28:14;;;;;;;2.13;1.70;;;18.90;98.00;;;;;;5013409;28;20452;-70
2022/06/26 04:30:42;;;;;;;2.90;1.70;;;19.00;98.00;;;;;;5013264;28;20470;-69
2022/06/26 04:33:10;;;;;;;3.37;2.53;;;19.00;98.00;;;;;;5013354;28;20467;-69
2022/06/26 04:35:37;;;;;;;2.53;1.83;;;19.00;98.00;;;;;;5013365;28;20451;-69
2022/06/26 04:38:05;;;;;;;2.17;1.70;;;19.30;98.00;;;;;;5013434;28;20459;-69
2022/06/26 04:40:32;;;;;;;3.60;1.97;;;19.30;98.00;;;;;;5013197;28;20470;-69
2022/06/26 04:42:59;;;;;;;1.93;1.83;;;19.20;98.00;;;;;;5012085;28;20535;-69
2022/06/26 04:45:26;;;;;;;2.37;1.90;;;19.40;98.00;;;;;;5013438;28;20487;-69
2022/06/26 04:47:55;;;;;;;1.60;1.50;;;19.30;98.00;;;;;;5013143;28;20455;-69
2022/06/26 04:50:22;;;;;;;2.17;1.70;;;19.30;98.00;;;;;;5013117;28;20455;-69
2022/06/26 04:52:50;;;;;;;3.17;2.00;;;19.40;98.00;;;;;;5013232;28;20452;-69
2022/06/26 04:55:18;;;;;;;2.40;1.80;;;19.20;98.00;;;;;;5013439;28;20460;-69
2022/06/26 04:57:45;;;;;;;2.70;2.40;;;19.20;98.00;;;;;;5013007;28;20467;-69
2022/06/26 05:00:15;;;;;;;3.23;2.23;;;19.30;98.00;;;;;;5013131;28;20467;-69
2022/06/26 05:02:42;;;;;;;2.40;1.93;;;19.50;98.00;;;;;;5012654;28;20478;-69
2022/06/26 05:05:11;;;;;;;2.13;1.80;;;19.50;98.00;;;;;;5013105;28;21061;-69
2022/06/26 05:07:41;;;;;;;2.70;1.90;;;19.60;98.00;;;;;;5012929;28;20471;-69
2022/06/26 05:10:09;;;;;;;4.17;2.40;;;19.50;98.00;;;;;;5012505;28;20958;-69
2022/06/26 05:12:38;;;;;;;2.47;1.60;;;19.50;98.00;;;;;;5012799;28;20464;-70
2022/06/26 05:15:07;;;;;;;2.63;1.80;;;19.60;98.00;;;;;;5012683;28;20842;-69
2022/06/26 05:17:34;;;;;;;2.30;2.00;;;19.90;98.00;;;;;;5012559;28;20460;-69
2022/06/26 05:20:01;;;;;;;2.33;2.00;;;19.90;98.00;;;;;;5012692;28;20459;-69
2022/06/26 05:22:30;;;;;;;2.97;2.17;;;19.90;98.00;;;;;;5012505;28;20466;-70
2022/06/26 05:24:57;;;;;;;2.60;1.83;;;19.90;98.00;;;;;;5012536;28;20487;-70
2022/06/26 05:27:24;;;;;;;1.93;1.77;;;19.90;98.00;;;;;;5012539;28;20462;-69
2022/06/26 05:29:52;;;;;;;3.47;2.10;;;20.10;98.00;;;;;;5012492;28;20466;-69
2022/06/26 05:32:19;;;;;;;2.30;1.73;;;20.10;98.00;;;;;;5012443;28;20459;-69
2022/06/26 05:34:47;;;;;;;2.30;1.73;;;20.10;98.00;;;;;;5012603;28;20467;-70
2022/06/26 05:37:14;;;;;;;2.30;2.13;;;20.20;98.00;;;;;;5012531;28;20504;-70
2022/06/26 05:39:42;;;;;;;2.10;1.67;;;20.40;98.00;;;;;;5012409;28;20472;-70
2022/06/26 05:42:09;;;;;;;1.73;1.60;;;20.40;98.00;;;;;;5012328;28;20482;-70
2022/06/26 05:44:36;;;;;;;1.97;1.63;;;20.50;98.00;;;;;;5012252;28;20480;-70
2022/06/26 05:47:04;;;;;;;1.63;1.40;;;20.60;98.00;;;;;;5012387;28;20482;-70
2022/06/26 05:49:32;;;;;;;1.80;1.73;;;20.60;98.00;;;;;;5012368;28;20452;-70
2022/06/26 05:51:59;;;;;;;2.73;2.00;;;20.80;98.00;;;;;;5012280;28;20456;-70
2022/06/26 05:54:26;;;;;;;3.30;2.13;;;20.80;98.00;;;;;;5012367;28;20455;-70
2022/06/26 05:56:55;;;;;;;3.27;2.17;;;20.80;98.00;;;;;;5012382;28;20459;-70
2022/06/26 05:59:22;;;;;;;2.50;1.80;;;20.70;98.00;;;;;;5011697;28;20462;-70
2022/06/26 06:01:49;;;;;;;2.23;2.10;;;20.80;98.00;;;;;;5012209;28;20463;-70
2022/06/26 06:04:16;;;;;;;3.13;2.30;;;20.90;98.00;;;;;;5011859;28;20907;-70
2022/06/26 06:06:43;;;;;;;4.77;2.40;;;20.80;98.00;;;;;;5012010;28;20452;-70
2022/06/26 06:09:11;;;;;;;4.20;2.00;;;20.90;98.00;;;;;;5010619;28;20974;-70
2022/06/26 06:11:38;;;;;;;2.40;1.80;;;21.00;98.00;;;;;;5012175;28;20460;-70
2022/06/26 06:14:06;;;;;;;2.30;1.87;;;21.10;98.00;;;;;;5011909;28;20459;-70
2022/06/26 06:16:34;;;;;;;1.90;1.60;;;21.10;98.00;;;;;;5012076;28;20448;-70
2022/06/26 06:19:01;;;;;;;3.57;2.80;;;21.10;98.00;;;;;;5011691;28;20969;-70
2022/06/26 06:21:28;;;;;;;2.83;2.10;;;21.20;98.00;;;;;;5012041;28;20554;-70
2022/06/26 06:23:55;;;;;;;2.67;2.10;;;21.00;98.00;;;;;;5011934;28;20479;-70
2022/06/26 06:26:25;;;;;;;2.40;1.70;;;21.00;98.00;;;;;;5011977;28;20491;-70
2022/06/26 06:28:52;;;;;;;3.23;2.23;;;21.20;98.00;;;;;;5010896;28;20474;-69
2022/06/26 06:31:20;;;;;;;3.57;2.00;;;21.30;98.00;;;;;;5014817;28;20455;-70
2022/06/26 06:33:48;;;;;;;1.93;1.80;;;21.40;98.00;;;;;;5015696;28;20463;-70
2022/06/26 06:36:15;;;;;;;3.70;2.30;;;21.40;98.00;;;;;;5014571;28;20478;-70
2022/06/26 06:38:42;;;;;;;2.50;1.80;;;21.40;98.00;;;;;;5015623;28;20458;-70
2022/06/26 06:41:10;;;;;;;3.50;2.23;;;21.30;98.00;;;;;;5015633;28;20474;-70
2022/06/26 06:43:37;;;;;;;2.23;2.00;;;21.40;98.00;;;;;;5015749;28;20467;-70
2022/06/26 06:46:05;;;;;;;2.83;2.30;;;21.50;98.00;;;;;;5015571;28;20459;-70
2022/06/26 06:48:36;;;;;;;3.13;1.90;;;21.50;98.00;;;;;;5015397;28;20459;-70
2022/06/26 06:51:03;;;;;;;1.77;1.70;;;21.40;98.00;;;;;;5015639;28;20467;-70
2022/06/26 06:53:32;;;;;;;2.37;1.70;;;21.30;98.00;;;;;;5016517;28;20469;-69
2022/06/26 06:56:00;;;;;;;2.07;1.87;;;21.30;98.00;;;;;;5017185;28;20483;-69
2022/06/26 06:58:27;;;;;;;2.60;2.00;;;21.20;98.00;;;;;;5017140;28;20456;-69
2022/06/26 07:00:54;;;;;;;2.73;2.10;;;21.30;98.00;;;;;;5016452;28;20958;-69
2022/06/26 07:03:21;;;;;;;2.90;2.07;;;21.50;98.00;;;;;;5015153;28;20471;-69
2022/06/26 07:05:51;;;;;;;2.23;1.70;;;21.50;98.00;;;;;;5015192;28;20565;-69
2022/06/26 07:08:18;;;;;;;2.70;2.00;;;21.40;98.00;;;;;;5014978;28;20455;-69
2022/06/26 07:10:46;;;;;;;2.87;1.80;;;21.10;98.00;;;;;;5014884;28;20574;-69
2022/06/26 07:13:13;;;;;;;2.90;2.17;;;21.10;98.00;;;;;;5014782;28;20459;-69
2022/06/26 07:15:40;;;;;;;1.90;1.87;;;21.10;98.00;;;;;;5014901;28;20455;-69
2022/06/26 07:18:07;;;;;;;2.70;1.90;;;21.20;98.00;;;;;;5013406;28;20459;-69
2022/06/26 07:20:35;;;;;;;2.70;1.90;;;21.20;98.00;;;;;;5014273;28;20460;-70
2022/06/26 07:23:04;;;;;;;1.90;1.50;;;21.30;98.00;;;;;;5013935;28;20550;-73
2022/06/26 07:25:31;;;;;;;2.90;2.07;;;21.60;98.00;;;;;;5013875;28;20515;-74
2022/06/26 07:27:58;;;;;;;4.60;2.30;;;22.00;98.00;;;;;;5013738;28;20455;-74
2022/06/26 07:30:25;;;;;;;3.73;2.30;;;22.20;98.00;;;;;;5013932;28;20470;-73
2022/06/26 07:32:52;;;;;;;2.63;1.90;;;22.40;98.00;;;;;;5013819;28;20978;-73
2022/06/26 07:35:20;;;;;;;2.50;1.90;;;22.40;98.00;;;;;;5012810;28;20467;-73
2022/06/26 07:37:47;;;;;;;3.10;1.83;;;22.20;98.00;;;;;;5013684;28;20454;-73
2022/06/26 07:40:16;;;;;;;2.53;2.13;;;22.30;98.00;;;;;;5013727;28;20514;-73
2022/06/26 07:42:43;;;;;;;2.77;1.87;;;22.50;98.00;;;;;;5013401;28;20459;-73
2022/06/26 07:45:11;;;;;;;1.80;1.57;;;22.80;98.00;;;;;;4995932;28;20907;-73
2022/06/26 07:47:38;;;;;;;2.50;2.00;;;23.00;98.00;;;;;;5013644;28;20492;-73
2022/06/26 07:50:06;;;;;;;2.90;1.80;;;23.30;98.00;;;;;;5013470;28;20455;-72
2022/06/26 07:52:34;;;;;;;3.67;2.00;;;23.40;98.00;;;;;;5013584;28;20452;-73
2022/06/26 07:55:01;;;;;;;2.13;1.67;;;23.30;98.00;;;;;;5013490;28;20818;-73
2022/06/26 07:57:32;;;;;;;3.10;1.77;;;23.50;98.00;;;;;;5013774;28;20456;-73
2022/06/26 07:59:59;;;;;;;1.80;1.70;;;23.70;98.00;;;;;;5012471;28;20463;-73
2022/06/26 08:02:28;;;;;;;2.70;2.00;;;23.90;98.00;;;;;;5013928;28;20512;-73
2022/06/26 08:04:55;;;;;;;1.70;1.57;;;23.80;98.00;;;;;;5013885;28;21112;-74
2022/06/26 08:07:22;;;;;;;1.97;1.63;;;23.90;98.00;;;;;;5013878;28;20459;-73
2022/06/26 08:09:50;;;;;;;4.00;2.20;;;24.10;98.00;;;;;;5013781;28;20464;-73
2022/06/26 08:12:17;;;;;;;2.20;1.40;;;24.20;98.00;;;;;;5011882;28;20808;-73
2022/06/26 08:14:46;;;;;;;2.10;1.63;;;24.30;98.00;;;;;;5011951;28;20498;-73
2022/06/26 08:17:13;;;;;;;2.63;1.83;;;24.20;98.00;;;;;;5012944;28;20456;-72
2022/06/26 08:19:40;;;;;;;3.10;1.90;;;24.40;98.00;;;;;;5013714;28;20455;-74
2022/06/26 08:22:07;;;;;;;2.50;1.70;;;24.40;98.00;;;;;;5014421;28;20463;-74
2022/06/26 08:24:36;;;;;;;3.70;2.07;;;24.40;98.00;;;;;;5013981;28;20510;-74
2022/06/26 08:27:04;;;;;;;1.90;1.67;;;24.40;98.00;;;;;;5013562;28;20837;-74
2022/06/26 08:29:31;;;;;;;3.00;2.07;;;24.50;98.00;;;;;;5013829;28;20464;-74
2022/06/26 08:32:00;;;;;;;2.43;1.80;;;24.60;98.00;;;;;;5013548;28;20459;-74
2022/06/26 08:34:27;;;;;;;2.87;2.07;;;24.60;98.00;;;;;;5012838;28;20460;-73
2022/06/26 08:36:55;;;;;;;2.10;1.77;;;24.60;98.00;;;;;;5012868;28;20462;-74
2022/06/26 08:39:22;;;;;;;1.70;1.50;;;24.70;98.00;;;;;;5012522;28;20462;-69
2022/06/26 08:41:52;;;;;;;2.60;2.20;;;24.60;98.00;;;;;;5013849;28;20460;-69
2022/06/26 08:44:24;;;;;;;2.10;1.90;;;24.70;98.00;;;;;;5012797;28;20456;-69
2022/06/26 08:46:54;;;;;;;3.17;2.13;;;24.80;98.00;;;;;;5012524;28;20459;-69
2022/06/26 08:49:24;;;;;;;2.20;1.70;;;24.90;98.00;;;;;;5012532;28;20467;-69
2022/06/26 08:51:53;;;;;;;2.27;1.90;;;25.00;98.00;;;;;;5012215;28;20769;-69
2022/06/26 08:54:20;;;;;;;2.37;2.03;;;25.00;98.00;;;;;;5011405;28;20466;-68
2022/06/26 08:56:49;;;;;;;1.70;1.60;;;25.00;98.00;;;;;;5012582;28;20710;-69
2022/06/26 08:59:20;;;;;;;2.23;1.70;;;25.10;98.00;;;;;;5012407;28;20455;-69
2022/06/26 09:01:47;;;;;;;2.23;1.90;;;25.00;98.00;;;;;;5011391;28;20474;-69
2022/06/26 09:04:15;;;;;;;2.87;1.70;;;25.10;98.00;;;;;;5012224;28;20482;-69
2022/06/26 09:06:45;;;;;;;2.20;1.77;;;25.30;98.00;;;;;;5012281;28;20493;-68
2022/06/26 09:09:17;;;;;;;2.67;1.80;;;25.50;98.00;;;;;;5012002;28;20463;-69
2022/06/26 09:11:45;;;;;;;2.00;1.60;;;25.60;97.60;;;;;;5012123;28;20544;-69
2022/06/26 09:14:14;;;;;;;2.03;1.83;;;25.70;98.00;;;;;;5011962;28;20460;-69
2022/06/26 09:16:45;;;;;;;2.50;1.73;;;25.80;98.00;;;;;;5012308;28;20463;-69
2022/06/26 09:19:16;;;;;;;1.87;1.80;;;25.90;96.20;;;;;;5011783;28;20456;-69
2022/06/26 09:21:46;;;;;;;3.10;1.90;;;25.90;96.30;;;;;;5012030;28;20463;-69
2022/06/26 09:24:14;;;;;;;2.80;1.70;;;25.80;94.90;;;;;;5011540;28;20988;-69
2022/06/26 09:26:42;;;;;;;1.83;1.70;;;25.90;97.80;;;;;;5011775;28;20479;-69
2022/06/26 09:29:11;;;;;;;1.97;1.70;;;26.00;94.10;;;;;;5011717;28;20969;-69
2022/06/26 09:31:40;;;;;;;2.23;1.70;;;25.90;93.80;;;;;;5011797;28;20482;-68
2022/06/26 09:34:08;;;;;;;1.80;1.70;;;26.00;95.00;;;;;;5011794;28;20464;-69
2022/06/26 09:36:35;;;;;;;2.20;1.67;;;25.90;95.80;;;;;;5011690;28;20463;-69
2022/06/26 09:39:07;;;;;;;2.57;1.63;;;25.80;95.40;;;;;;5011500;28;20486;-69
2022/06/26 09:41:36;;;;;;;1.90;1.57;;;25.90;96.10;;;;;;5011839;28;20464;-69
2022/06/26 09:44:04;;;;;;;3.20;1.70;;;26.00;95.60;;;;;;5010350;28;20459;-69
2022/06/26 09:46:33;;;;;;;2.03;1.83;;;26.00;95.60;;;;;;5011436;28;20487;-69
2022/06/26 09:49:01;;;;;;;2.00;1.60;;;26.10;95.50;;;;;;5011444;28;20498;-69
2022/06/26 09:51:29;;;;;;;2.03;1.70;;;26.20;95.80;;;;;;5011523;28;20451;-69
2022/06/26 09:53:56;;;;;;;1.70;1.70;;;26.30;97.10;;;;;;5010217;28;20455;-69
2022/06/26 09:56:26;;;;;;;2.60;1.70;;;26.50;97.00;;;;;;5010368;28;20539;-69
2022/06/26 09:58:55;;;;;;;8.40;1.90;;;26.70;96.30;;;;;;5010415;28;20456;-69
2022/06/26 10:07:00;;;;;;;1.93;1.70;;;27.00;93.40;;;;;;4981413;28;20584;-69
2022/06/26 10:09:28;;;;;;;3.33;1.80;;;26.80;94.00;;;;;;5015541;28;20467;-69
2022/06/26 10:11:59;;;;;;;1.67;1.63;;;26.90;96.10;;;;;;5015496;28;20466;-69
2022/06/26 10:14:30;;;;;;;1.60;1.50;;;27.00;94.20;;;;;;5015307;28;20460;-69
2022/06/26 10:17:31;;;;;;;2.83;1.90;;;27.20;94.40;;;;;;5014230;28;20463;-69
2022/06/26 10:20:00;;;;;;;1.50;1.50;;;27.60;93.00;;;;;;4992885;28;21017;-69
2022/06/26 10:22:37;;;;;;;1.60;1.50;;;27.80;90.80;;;;;;5015289;28;20471;-69
2022/06/26 10:25:06;;;;;;;2.53;1.90;;;27.70;90.10;;;;;;5014990;28;20463;-69
2022/06/26 10:27:37;;;;;;;2.10;1.70;;;27.80;90.60;;;;;;5013879;28;20558;-70
2022/06/26 10:30:06;;;;;;;2.03;1.77;;;28.00;91.40;;;;;;5015372;28;20554;-70
2022/06/26 10:32:33;;;;;;;1.80;1.80;;;28.10;90.50;;;;;;5015035;28;21016;-69
2022/06/26 10:35:00;;;;;;;2.17;1.73;;;28.30;90.70;;;;;;5015028;28;20455;-69
2022/06/26 10:37:39;;;;;;;1.80;1.47;;;28.40;90.40;;;;;;5014791;28;20467;-69
2022/06/26 10:40:13;;;;;;;2.23;1.80;;;28.50;90.60;;;;;;5014885;28;20459;-69
2022/06/26 10:42:53;;;;;;;2.43;1.70;;;28.70;90.90;;;;;;5014933;28;20469;-69
2022/06/26 10:45:25;;;;;;;1.90;1.87;;;28.90;91.50;;;;;;5014932;28;20541;-69
2022/06/26 10:47:53;;;;;;;2.20;1.73;;;29.00;89.30;;;;;;5014746;28;20459;-69
2022/06/26 10:50:29;;;;;;;1.83;1.63;;;28.80;86.70;;;;;;5014749;28;20456;-69
2022/06/26 10:53:17;;;;;;;1.80;1.70;;;28.70;88.10;;;;;;5014764;28;20454;-69
2022/06/26 10:55:47;;;;;;;2.00;1.67;;;28.90;92.20;;;;;;5014760;28;20471;-69
2022/06/26 10:58:27;;;;;;;1.90;1.70;;;29.20;89.20;;;;;;5014686;28;21010;-69
2022/06/26 11:00:57;;;;;;;2.23;1.80;;;29.00;85.90;;;;;;5014922;28;20467;-69
2022/06/26 11:03:24;;;;;;;1.77;1.50;;;28.80;90.50;;;;;;5014571;28;20479;-69
2022/06/26 11:05:58;;;;;;;2.20;1.80;;;29.10;90.30;;;;;;5014616;28;20479;-70
2022/06/26 11:08:30;;;;;;;2.20;1.60;;;29.10;87.10;;;;;;5014579;28;20460;-69
2022/06/26 11:11:02;;;;;;;3.00;1.90;;;29.30;89.30;;;;;;5014336;28;20477;-70
2022/06/26 11:13:31;;;;;;;2.90;1.60;;;29.60;88.20;;;;;;5014310;28;20950;-70
2022/06/26 11:15:58;;;;;;;2.00;1.70;;;29.80;85.30;;;;;;5013772;28;20463;-69
2022/06/26 11:18:25;;;;;;;1.90;1.73;;;29.90;85.30;;;;;;5014029;28;20471;-69
2022/06/26 11:20:55;;;;;;;2.00;1.70;;;30.00;85.90;;;;;;5013004;28;20466;-69
2022/06/26 11:23:24;;;;;;;2.00;1.73;;;30.10;82.40;;;;;;5012784;28;20466;-69
2022/06/26 11:25:55;;;;;;;2.17;1.80;;;30.20;85.80;;;;;;5014024;28;20491;-70
2022/06/26 11:28:27;;;;;;;2.53;1.80;;;30.30;84.90;;;;;;5013928;28;20460;-70
2022/06/26 11:31:05;;;;;;;2.20;1.80;;;30.20;83.80;;;;;;5012791;28;20451;-69
2022/06/26 11:33:34;;;;;;;1.70;1.60;;;30.40;85.60;;;;;;5013885;28;20459;-70
2022/06/26 11:36:03;;;;;;;1.80;1.77;;;30.40;82.40;;;;;;5013886;28;20970;-70
2022/06/26 11:38:31;;;;;;;2.10;1.87;;;30.60;83.00;;;;;;5013794;28;20454;-69
2022/06/26 11:41:00;;;;;;;1.90;1.70;;;30.90;83.30;;;;;;5013816;28;20535;-70
2022/06/26 11:43:28;;;;;;;2.30;1.80;;;31.00;82.00;;;;;;5014022;28;20962;-70
2022/06/26 11:45:58;;;;;;;3.03;1.90;;;30.80;81.10;;;;;;5012237;28;20476;-70
2022/06/26 11:48:25;;;;;;;2.17;1.87;;;31.40;82.60;;;;;;5013528;28;20455;-73
2022/06/26 11:50:59;;;;;;;1.60;1.60;;;31.70;80.00;;;;;;5013875;28;20451;-72
2022/06/26 11:53:27;;;;;;;2.63;1.73;;;31.70;78.90;;;;;;5014442;28;20460;-73
2022/06/26 11:56:01;;;;;;;2.70;1.97;;;31.80;78.70;;;;;;5014514;28;20463;-73
2022/06/26 11:58:29;;;;;;;2.13;1.70;;;31.60;79.50;;;;;;5014263;28;20459;-72
2022/06/26 12:01:08;;;;;;;2.43;1.80;;;31.40;80.20;;;;;;5014206;28;20456;-72
2022/06/26 12:03:35;;;;;;;2.17;1.83;;;31.00;80.70;;;;;;5013793;28;20469;-72
2022/06/26 12:06:03;;;;;;;1.73;1.53;;;30.70;80.90;;;;;;5014012;28;20894;-72
2022/06/26 12:08:31;;;;;;;2.23;1.80;;;30.30;83.30;;;;;;5013852;28;20539;-73
2022/06/26 12:11:01;;;;;;;2.03;1.80;;;30.30;83.10;;;;;;5013839;28;20518;-72
2022/06/26 12:13:30;;;;;;;2.93;2.10;;;30.20;82.40;;;;;;5013745;28;20455;-74
2022/06/26 12:16:10;;;;;;;3.37;2.07;;;30.20;84.10;;;;;;5013750;28;20455;-73
2022/06/26 12:18:40;;;;;;;1.90;1.73;;;30.40;86.40;;;;;;5013433;28;20470;-74
2022/06/26 12:21:16;;;;;;;2.03;1.80;;;30.70;84.10;;;;;;5013562;28;20470;-73
2022/06/26 12:23:44;;;;;;;1.70;1.60;;;31.00;83.30;;;;;;5013540;28;20463;-73
2022/06/26 12:26:13;;;;;;;1.90;1.70;;;31.20;83.30;;;;;;5013149;28;20526;-74
2022/06/26 12:28:48;;;;;;;2.30;1.70;;;31.30;81.90;;;;;;5012776;28;20455;-73
2022/06/26 12:31:18;;;;;;;2.37;1.90;;;31.30;82.30;;;;;;5013372;28;20549;-74
2022/06/26 12:33:48;;;;;;;1.70;1.70;;;31.40;81.70;;;;;;5013645;28;20463;-74
2022/06/26 12:36:16;;;;;;;2.23;1.90;;;31.40;80.20;;;;;;5013291;28;20494;-76
2022/06/26 12:38:44;;;;;;;2.73;2.10;;;31.50;81.90;;;;;;5013548;28;20459;-77
2022/06/26 12:41:17;;;;;;;2.40;1.90;;;31.50;82.00;;;;;;5013634;28;20460;-76
2022/06/26 12:43:48;;;;;;;2.27;1.83;;;31.60;80.10;;;;;;5013669;28;20521;-75
2022/06/26 12:46:17;;;;;;;2.47;2.00;;;31.80;83.10;;;;;;5013135;28;20490;-74
2022/06/26 12:48:48;;;;;;;2.43;2.00;;;31.90;81.60;;;;;;5011907;28;20451;-74
2022/06/26 12:51:15;;;;;;;2.90;1.90;;;32.00;80.60;;;;;;5012349;28;20470;-74
2022/06/26 12:53:44;;;;;;;2.10;1.77;;;32.10;80.10;;;;;;5013452;28;20478;-74
2022/06/26 12:56:12;;;;;;;2.23;1.80;;;32.10;80.20;;;;;;5012668;28;20521;-76
2022/06/26 12:58:40;;;;;;;2.20;1.83;;;32.20;81.60;;;;;;5012859;28;20462;-75
2022/06/26 13:01:09;;;;;;;2.70;2.23;;;32.50;80.60;;;;;;5013239;28;20456;-75
2022/06/26 13:03:38;;;;;;;3.10;1.93;;;32.60;80.90;;;;;;5012696;28;20463;-75